sensor_id;sensor_type;location;lat;lon;timestamp;P1;durP1;ratioP1;P2;durP2;ratioP2
21424;SDS011;10873;51.132;16.848;2024-03-23T00:55:18;5.78;;;4.38;;
21424;SDS011;10873;51.132;16.848;2024-03-23T00:57:44;5.55;;;3.97;;
21424;SDS011;10873;51.132;16.848;2024-03-23T01:00:11;6.97;;;4.32;;
21424;SDS011;10873;51.132;16.848;2024-03-23T01:02:38;5.55;;;4.38;;
21424;SDS011;10873;51.132;16.848;2024-03-23T01:05:05;6.07;;;4.13;;
21424;SDS011;10873;51.132;16.848;2024-03-23T01:07:31;5.00;;;4.40;;
21424;SDS011;10873;51.132;16.848;2024-03-23T01:09:58;5.25;;;4.15;;
21424;SDS011;10873;51.132;16.848;2024-03-23T01:12:24;4.60;;;3.85;;
21424;SDS011;10873;51.132;16.848;2024-03-23T01:14:50;8.40;;;3.92;;
21424;SDS011;10873;51.132;16.848;2024-03-23T01:17:16;5.63;;;4.20;;
21424;SDS011;10873;51.132;16.848;2024-03-23T01:19:43;5.68;;;4.30;;
21424;SDS011;10873;51.132;16.848;2024-03-23T01:22:09;5.32;;;4.50;;
21424;SDS011;10873;51.132;16.848;2024-03-23T01:24:36;5.72;;;4.00;;
21424;SDS011;10873;51.132;16.848;2024-03-23T01:27:03;6.53;;;4.93;;
21424;SDS011;10873;51.132;16.848;2024-03-23T01:29:30;5.63;;;4.30;;
21424;SDS011;10873;51.132;16.848;2024-03-23T01:31:56;5.70;;;4.15;;
21424;SDS011;10873;51.132;16.848;2024-03-23T01:34:23;5.70;;;4.22;;
21424;SDS011;10873;51.132;16.848;2024-03-23T01:36:50;5.82;;;4.45;;
21424;SDS011;10873;51.132;16.848;2024-03-23T01:39:16;5.78;;;4.10;;
21424;SDS011;10873;51.132;16.848;2024-03-23T01:41:42;6.38;;;4.50;;
21424;SDS011;10873;51.132;16.848;2024-03-23T01:44:10;7.32;;;4.38;;
21424;SDS011;10873;51.132;16.848;2024-03-23T01:46:36;6.00;;;4.30;;
21424;SDS011;10873;51.132;16.848;2024-03-23T01:49:07;6.13;;;4.15;;
21424;SDS011;10873;51.132;16.848;2024-03-23T01:51:35;6.05;;;4.10;;
21424;SDS011;10873;51.132;16.848;2024-03-23T01:54:02;6.63;;;4.15;;
21424;SDS011;10873;51.132;16.848;2024-03-23T01:56:29;6.72;;;4.47;;
21424;SDS011;10873;51.132;16.848;2024-03-23T01:58:58;7.82;;;4.50;;
21424;SDS011;10873;51.132;16.848;2024-03-23T02:01:26;6.70;;;4.68;;
21424;SDS011;10873;51.132;16.848;2024-03-23T02:03:53;7.88;;;4.72;;
21424;SDS011;10873;51.132;16.848;2024-03-23T02:06:20;7.85;;;4.47;;
21424;SDS011;10873;51.132;16.848;2024-03-23T02:08:48;7.63;;;4.78;;
21424;SDS011;10873;51.132;16.848;2024-03-23T02:11:14;6.95;;;4.03;;
21424;SDS011;10873;51.132;16.848;2024-03-23T02:13:40;5.78;;;4.30;;
21424;SDS011;10873;51.132;16.848;2024-03-23T02:16:06;7.40;;;4.60;;
21424;SDS011;10873;51.132;16.848;2024-03-23T02:18:34;5.30;;;4.15;;
21424;SDS011;10873;51.132;16.848;2024-03-23T02:21:00;7.68;;;4.40;;
21424;SDS011;10873;51.132;16.848;2024-03-23T02:23:27;5.75;;;4.22;;
21424;SDS011;10873;51.132;16.848;2024-03-23T02:25:53;5.47;;;4.20;;
21424;SDS011;10873;51.132;16.848;2024-03-23T02:28:20;5.47;;;4.05;;
21424;SDS011;10873;51.132;16.848;2024-03-23T02:30:47;5.65;;;4.07;;
21424;SDS011;10873;51.132;16.848;2024-03-23T02:33:14;6.45;;;4.30;;
21424;SDS011;10873;51.132;16.848;2024-03-23T02:35:40;7.32;;;4.18;;
21424;SDS011;10873;51.132;16.848;2024-03-23T02:38:07;5.28;;;4.13;;
21424;SDS011;10873;51.132;16.848;2024-03-23T02:40:33;7.47;;;4.38;;
21424;SDS011;10873;51.132;16.848;2024-03-23T02:43:00;5.32;;;4.07;;
21424;SDS011;10873;51.132;16.848;2024-03-23T02:45:26;7.82;;;4.60;;
21424;SDS011;10873;51.132;16.848;2024-03-23T02:47:52;6.63;;;3.97;;
21424;SDS011;10873;51.132;16.848;2024-03-23T02:50:18;5.75;;;4.20;;
21424;SDS011;10873;51.132;16.848;2024-03-23T02:52:45;6.47;;;4.05;;
21424;SDS011;10873;51.132;16.848;2024-03-23T02:55:12;7.38;;;4.13;;
21424;SDS011;10873;51.132;16.848;2024-03-23T02:57:39;6.00;;;4.05;;
21424;SDS011;10873;51.132;16.848;2024-03-23T03:00:06;5.93;;;4.05;;
21424;SDS011;10873;51.132;16.848;2024-03-23T03:02:33;5.55;;;4.07;;
21424;SDS011;10873;51.132;16.848;2024-03-23T03:04:59;5.32;;;4.20;;
21424;SDS011;10873;51.132;16.848;2024-03-23T03:07:25;4.88;;;3.95;;
21424;SDS011;10873;51.132;16.848;2024-03-23T03:09:52;4.75;;;3.85;;
21424;SDS011;10873;51.132;16.848;2024-03-23T03:12:18;5.22;;;3.78;;
21424;SDS011;10873;51.132;16.848;2024-03-23T03:14:44;4.72;;;3.60;;
21424;SDS011;10873;51.132;16.848;2024-03-23T03:17:11;4.57;;;3.70;;
21424;SDS011;10873;51.132;16.848;2024-03-23T03:19:37;5.40;;;4.18;;
21424;SDS011;10873;51.132;16.848;2024-03-23T03:22:03;5.60;;;4.10;;
21424;SDS011;10873;51.132;16.848;2024-03-23T03:24:30;5.22;;;3.97;;
21424;SDS011;10873;51.132;16.848;2024-03-23T03:26:56;4.75;;;3.92;;
21424;SDS011;10873;51.132;16.848;2024-03-23T03:29:25;7.72;;;4.07;;
21424;SDS011;10873;51.132;16.848;2024-03-23T03:31:52;5.05;;;4.00;;
21424;SDS011;10873;51.132;16.848;2024-03-23T03:34:18;5.75;;;4.22;;
21424;SDS011;10873;51.132;16.848;2024-03-23T03:36:44;5.45;;;4.47;;
21424;SDS011;10873;51.132;16.848;2024-03-23T03:39:10;6.57;;;4.30;;
21424;SDS011;10873;51.132;16.848;2024-03-23T03:41:38;5.53;;;4.63;;
21424;SDS011;10873;51.132;16.848;2024-03-23T03:44:04;5.22;;;4.03;;
21424;SDS011;10873;51.132;16.848;2024-03-23T03:46:30;5.68;;;3.80;;
21424;SDS011;10873;51.132;16.848;2024-03-23T03:48:57;5.75;;;3.88;;
21424;SDS011;10873;51.132;16.848;2024-03-23T03:51:23;4.28;;;3.85;;
21424;SDS011;10873;51.132;16.848;2024-03-23T03:53:49;6.32;;;4.32;;
21424;SDS011;10873;51.132;16.848;2024-03-23T03:56:16;5.00;;;3.88;;
21424;SDS011;10873;51.132;16.848;2024-03-23T03:58:42;4.88;;;3.85;;
21424;SDS011;10873;51.132;16.848;2024-03-23T04:01:09;4.70;;;3.47;;
21424;SDS011;10873;51.132;16.848;2024-03-23T04:03:35;5.05;;;4.00;;
21424;SDS011;10873;51.132;16.848;2024-03-23T04:06:03;5.32;;;4.03;;
21424;SDS011;10873;51.132;16.848;2024-03-23T04:08:29;4.50;;;3.97;;
21424;SDS011;10873;51.132;16.848;2024-03-23T04:10:56;5.25;;;3.80;;
21424;SDS011;10873;51.132;16.848;2024-03-23T04:13:22;6.65;;;4.40;;
21424;SDS011;10873;51.132;16.848;2024-03-23T04:15:49;5.60;;;4.70;;
21424;SDS011;10873;51.132;16.848;2024-03-23T04:18:19;6.05;;;4.53;;
21424;SDS011;10873;51.132;16.848;2024-03-23T04:20:45;5.57;;;4.57;;
21424;SDS011;10873;51.132;16.848;2024-03-23T04:23:13;5.55;;;4.07;;
21424;SDS011;10873;51.132;16.848;2024-03-23T04:25:40;6.10;;;4.28;;
21424;SDS011;10873;51.132;16.848;2024-03-23T04:28:06;6.05;;;4.30;;
21424;SDS011;10873;51.132;16.848;2024-03-23T04:30:32;5.43;;;4.40;;
21424;SDS011;10873;51.132;16.848;2024-03-23T04:32:58;5.25;;;4.15;;
21424;SDS011;10873;51.132;16.848;2024-03-23T04:35:25;5.65;;;4.40;;
21424;SDS011;10873;51.132;16.848;2024-03-23T04:37:51;6.97;;;3.88;;
21424;SDS011;10873;51.132;16.848;2024-03-23T04:40:19;5.60;;;4.25;;
21424;SDS011;10873;51.132;16.848;2024-03-23T04:42:45;4.90;;;3.75;;
21424;SDS011;10873;51.132;16.848;2024-03-23T04:45:12;5.93;;;4.22;;
21424;SDS011;10873;51.132;16.848;2024-03-23T04:47:38;4.80;;;4.07;;
21424;SDS011;10873;51.132;16.848;2024-03-23T04:50:04;4.38;;;3.80;;
21424;SDS011;10873;51.132;16.848;2024-03-23T04:52:31;6.00;;;3.60;;
21424;SDS011;10873;51.132;16.848;2024-03-23T04:54:57;4.72;;;3.97;;
21424;SDS011;10873;51.132;16.848;2024-03-23T04:57:24;4.85;;;3.85;;
21424;SDS011;10873;51.132;16.848;2024-03-23T04:59:50;7.40;;;4.15;;
21424;SDS011;10873;51.132;16.848;2024-03-23T05:02:16;4.90;;;4.05;;
21424;SDS011;10873;51.132;16.848;2024-03-23T05:04:42;4.97;;;3.95;;
21424;SDS011;10873;51.132;16.848;2024-03-23T05:07:08;6.30;;;4.20;;
21424;SDS011;10873;51.132;16.848;2024-03-23T05:09:35;5.35;;;4.05;;
21424;SDS011;10873;51.132;16.848;2024-03-23T05:12:00;5.63;;;4.20;;
21424;SDS011;10873;51.132;16.848;2024-03-23T05:14:28;4.97;;;4.15;;
21424;SDS011;10873;51.132;16.848;2024-03-23T05:16:54;7.25;;;4.43;;
21424;SDS011;10873;51.132;16.848;2024-03-23T05:19:21;5.63;;;4.65;;
21424;SDS011;10873;51.132;16.848;2024-03-23T05:21:47;4.97;;;4.20;;
21424;SDS011;10873;51.132;16.848;2024-03-23T05:24:14;5.65;;;4.28;;
21424;SDS011;10873;51.132;16.848;2024-03-23T05:26:40;5.40;;;4.43;;
21424;SDS011;10873;51.132;16.848;2024-03-23T05:29:06;5.63;;;4.82;;
21424;SDS011;10873;51.132;16.848;2024-03-23T05:31:36;7.18;;;4.57;;
21424;SDS011;10873;51.132;16.848;2024-03-23T05:34:03;6.20;;;4.63;;
21424;SDS011;10873;51.132;16.848;2024-03-23T05:36:29;5.90;;;4.22;;
21424;SDS011;10873;51.132;16.848;2024-03-23T05:38:55;5.78;;;4.53;;
21424;SDS011;10873;51.132;16.848;2024-03-23T05:41:21;5.10;;;4.15;;
21424;SDS011;10873;51.132;16.848;2024-03-23T05:43:50;5.40;;;4.32;;
21424;SDS011;10873;51.132;16.848;2024-03-23T05:46:16;5.75;;;4.50;;
21424;SDS011;10873;51.132;16.848;2024-03-23T05:48:44;6.53;;;4.80;;
21424;SDS011;10873;51.132;16.848;2024-03-23T05:51:10;5.55;;;4.47;;
21424;SDS011;10873;51.132;16.848;2024-03-23T05:53:38;5.28;;;4.50;;
21424;SDS011;10873;51.132;16.848;2024-03-23T05:56:04;7.28;;;5.15;;
21424;SDS011;10873;51.132;16.848;2024-03-23T05:58:31;5.38;;;4.25;;
21424;SDS011;10873;51.132;16.848;2024-03-23T06:00:58;6.60;;;4.82;;
21424;SDS011;10873;51.132;16.848;2024-03-23T06:03:25;6.88;;;4.85;;
21424;SDS011;10873;51.132;16.848;2024-03-23T06:05:52;7.40;;;4.85;;
21424;SDS011;10873;51.132;16.848;2024-03-23T06:08:20;5.85;;;4.90;;
21424;SDS011;10873;51.132;16.848;2024-03-23T06:10:47;7.00;;;5.20;;
21424;SDS011;10873;51.132;16.848;2024-03-23T06:13:14;6.25;;;4.93;;
21424;SDS011;10873;51.132;16.848;2024-03-23T06:15:40;5.88;;;4.95;;
21424;SDS011;10873;51.132;16.848;2024-03-23T06:18:07;6.97;;;4.32;;
21424;SDS011;10873;51.132;16.848;2024-03-23T06:20:33;5.88;;;4.55;;
21424;SDS011;10873;51.132;16.848;2024-03-23T06:23:01;5.53;;;4.70;;
21424;SDS011;10873;51.132;16.848;2024-03-23T06:25:28;5.65;;;4.47;;
21424;SDS011;10873;51.132;16.848;2024-03-23T06:27:59;5.28;;;4.38;;
21424;SDS011;10873;51.132;16.848;2024-03-23T06:30:26;5.55;;;4.47;;
21424;SDS011;10873;51.132;16.848;2024-03-23T06:32:54;5.28;;;4.07;;
21424;SDS011;10873;51.132;16.848;2024-03-23T06:35:21;6.57;;;4.70;;
21424;SDS011;10873;51.132;16.848;2024-03-23T06:37:48;5.03;;;4.10;;
21424;SDS011;10873;51.132;16.848;2024-03-23T06:40:14;5.65;;;4.32;;
21424;SDS011;10873;51.132;16.848;2024-03-23T06:42:43;5.28;;;4.22;;
21424;SDS011;10873;51.132;16.848;2024-03-23T06:45:09;5.47;;;4.35;;
21424;SDS011;10873;51.132;16.848;2024-03-23T06:47:35;5.82;;;4.45;;
21424;SDS011;10873;51.132;16.848;2024-03-23T06:50:02;6.00;;;4.28;;
21424;SDS011;10873;51.132;16.848;2024-03-23T06:52:30;6.25;;;4.60;;
21424;SDS011;10873;51.132;16.848;2024-03-23T06:54:57;5.40;;;4.50;;
21424;SDS011;10873;51.132;16.848;2024-03-23T06:57:25;5.65;;;4.53;;
21424;SDS011;10873;51.132;16.848;2024-03-23T06:59:52;8.07;;;4.65;;
21424;SDS011;10873;51.132;16.848;2024-03-23T07:02:18;6.40;;;4.65;;
21424;SDS011;10873;51.132;16.848;2024-03-23T07:04:45;8.27;;;4.78;;
21424;SDS011;10873;51.132;16.848;2024-03-23T07:07:13;6.07;;;4.90;;
21424;SDS011;10873;51.132;16.848;2024-03-23T07:09:39;11.40;;;6.47;;
21424;SDS011;10873;51.132;16.848;2024-03-23T07:12:06;15.65;;;9.30;;
21424;SDS011;10873;51.132;16.848;2024-03-23T07:14:35;19.02;;;12.95;;
21424;SDS011;10873;51.132;16.848;2024-03-23T07:17:03;26.23;;;17.23;;
21424;SDS011;10873;51.132;16.848;2024-03-23T07:19:34;36.83;;;21.42;;
21424;SDS011;10873;51.132;16.848;2024-03-23T07:22:03;35.78;;;23.50;;
21424;SDS011;10873;51.132;16.848;2024-03-23T07:24:47;36.75;;;25.55;;
21424;SDS011;10873;51.132;16.848;2024-03-23T07:28:00;47.15;;;30.98;;
21424;SDS011;10873;51.132;16.848;2024-03-23T07:30:29;57.95;;;35.70;;
21424;SDS011;10873;51.132;16.848;2024-03-23T07:32:55;60.95;;;37.80;;
21424;SDS011;10873;51.132;16.848;2024-03-23T07:35:27;63.90;;;39.97;;
21424;SDS011;10873;51.132;16.848;2024-03-23T07:38:36;66.43;;;41.53;;
21424;SDS011;10873;51.132;16.848;2024-03-23T07:41:30;70.07;;;45.33;;
21424;SDS011;10873;51.132;16.848;2024-03-23T07:43:56;78.00;;;47.05;;
21424;SDS011;10873;51.132;16.848;2024-03-23T07:46:23;94.80;;;54.67;;
21424;SDS011;10873;51.132;16.848;2024-03-23T07:48:51;87.35;;;50.95;;
21424;SDS011;10873;51.132;16.848;2024-03-23T07:51:17;59.42;;;38.20;;
21424;SDS011;10873;51.132;16.848;2024-03-23T07:53:46;43.83;;;29.50;;
21424;SDS011;10873;51.132;16.848;2024-03-23T07:56:13;32.38;;;21.05;;
21424;SDS011;10873;51.132;16.848;2024-03-23T07:58:41;27.55;;;16.60;;
21424;SDS011;10873;51.132;16.848;2024-03-23T08:01:08;20.75;;;13.45;;
21424;SDS011;10873;51.132;16.848;2024-03-23T08:03:35;19.15;;;11.75;;
21424;SDS011;10873;51.132;16.848;2024-03-23T08:06:08;16.10;;;10.80;;
21424;SDS011;10873;51.132;16.848;2024-03-23T08:08:35;17.75;;;9.82;;
21424;SDS011;10873;51.132;16.848;2024-03-23T08:11:02;13.63;;;7.72;;
21424;SDS011;10873;51.132;16.848;2024-03-23T08:13:29;11.85;;;7.75;;
21424;SDS011;10873;51.132;16.848;2024-03-23T08:15:56;12.52;;;6.95;;
21424;SDS011;10873;51.132;16.848;2024-03-23T08:18:23;10.70;;;6.90;;
21424;SDS011;10873;51.132;16.848;2024-03-23T08:20:55;10.52;;;6.40;;
21424;SDS011;10873;51.132;16.848;2024-03-23T08:23:23;9.20;;;6.65;;
21424;SDS011;10873;51.132;16.848;2024-03-23T08:25:49;9.38;;;6.28;;
21424;SDS011;10873;51.132;16.848;2024-03-23T08:28:16;10.88;;;6.15;;
21424;SDS011;10873;51.132;16.848;2024-03-23T08:30:42;9.18;;;6.00;;
21424;SDS011;10873;51.132;16.848;2024-03-23T08:33:08;9.82;;;6.45;;
21424;SDS011;10873;51.132;16.848;2024-03-23T08:35:34;9.77;;;6.60;;
21424;SDS011;10873;51.132;16.848;2024-03-23T08:38:01;9.13;;;6.38;;
21424;SDS011;10873;51.132;16.848;2024-03-23T08:40:27;13.43;;;7.85;;
21424;SDS011;10873;51.132;16.848;2024-03-23T08:42:53;19.00;;;10.05;;
21424;SDS011;10873;51.132;16.848;2024-03-23T08:45:19;16.58;;;9.30;;
21424;SDS011;10873;51.132;16.848;2024-03-23T08:47:47;16.85;;;9.40;;
21424;SDS011;10873;51.132;16.848;2024-03-23T08:50:13;15.40;;;8.20;;
21424;SDS011;10873;51.132;16.848;2024-03-23T08:52:40;11.13;;;7.90;;
21424;SDS011;10873;51.132;16.848;2024-03-23T08:55:07;13.60;;;9.70;;
21424;SDS011;10873;51.132;16.848;2024-03-23T08:57:35;12.35;;;7.75;;
21424;SDS011;10873;51.132;16.848;2024-03-23T09:00:01;11.80;;;7.63;;
21424;SDS011;10873;51.132;16.848;2024-03-23T09:02:28;10.93;;;7.40;;
21424;SDS011;10873;51.132;16.848;2024-03-23T09:04:54;12.20;;;7.30;;
21424;SDS011;10873;51.132;16.848;2024-03-23T09:07:20;9.35;;;6.50;;
21424;SDS011;10873;51.132;16.848;2024-03-23T09:09:46;9.85;;;6.90;;
21424;SDS011;10873;51.132;16.848;2024-03-23T09:12:32;11.52;;;6.80;;
21424;SDS011;10873;51.132;16.848;2024-03-23T09:14:59;14.05;;;9.35;;
21424;SDS011;10873;51.132;16.848;2024-03-23T09:17:25;16.58;;;10.65;;
21424;SDS011;10873;51.132;16.848;2024-03-23T09:19:51;14.55;;;10.65;;
21424;SDS011;10873;51.132;16.848;2024-03-23T09:22:18;17.25;;;12.45;;
21424;SDS011;10873;51.132;16.848;2024-03-23T09:24:44;21.67;;;12.43;;
21424;SDS011;10873;51.132;16.848;2024-03-23T09:27:10;18.02;;;10.88;;
21424;SDS011;10873;51.132;16.848;2024-03-23T09:29:37;15.82;;;10.57;;
21424;SDS011;10873;51.132;16.848;2024-03-23T09:32:03;17.50;;;11.90;;
21424;SDS011;10873;51.132;16.848;2024-03-23T09:34:29;18.95;;;13.45;;
21424;SDS011;10873;51.132;16.848;2024-03-23T09:36:56;21.75;;;15.02;;
21424;SDS011;10873;51.132;16.848;2024-03-23T09:39:22;24.50;;;15.48;;
21424;SDS011;10873;51.132;16.848;2024-03-23T09:41:48;22.52;;;15.23;;
21424;SDS011;10873;51.132;16.848;2024-03-23T09:44:15;30.63;;;18.48;;
21424;SDS011;10873;51.132;16.848;2024-03-23T09:46:43;28.27;;;17.33;;
21424;SDS011;10873;51.132;16.848;2024-03-23T09:49:09;35.97;;;20.70;;
21424;SDS011;10873;51.132;16.848;2024-03-23T09:51:36;35.80;;;20.23;;
21424;SDS011;10873;51.132;16.848;2024-03-23T09:54:02;31.13;;;19.08;;
21424;SDS011;10873;51.132;16.848;2024-03-23T09:56:29;32.78;;;20.20;;
21424;SDS011;10873;51.132;16.848;2024-03-23T09:59:00;34.15;;;19.98;;
21424;SDS011;10873;51.132;16.848;2024-03-23T10:01:29;32.72;;;19.23;;
21424;SDS011;10873;51.132;16.848;2024-03-23T10:03:55;29.35;;;18.08;;
21424;SDS011;10873;51.132;16.848;2024-03-23T10:06:22;26.45;;;15.88;;
21424;SDS011;10873;51.132;16.848;2024-03-23T10:08:51;21.58;;;13.70;;
21424;SDS011;10873;51.132;16.848;2024-03-23T10:11:18;19.75;;;11.35;;
21424;SDS011;10873;51.132;16.848;2024-03-23T10:13:46;18.17;;;10.95;;
21424;SDS011;10873;51.132;16.848;2024-03-23T10:16:20;13.88;;;8.88;;
21424;SDS011;10873;51.132;16.848;2024-03-23T10:18:47;18.50;;;9.60;;
21424;SDS011;10873;51.132;16.848;2024-03-23T10:21:14;14.27;;;8.57;;
21424;SDS011;10873;51.132;16.848;2024-03-23T10:23:41;16.80;;;8.35;;
21424;SDS011;10873;51.132;16.848;2024-03-23T10:26:16;14.25;;;7.55;;
21424;SDS011;10873;51.132;16.848;2024-03-23T10:28:56;10.18;;;6.28;;
21424;SDS011;10873;51.132;16.848;2024-03-23T10:31:27;10.70;;;6.07;;
21424;SDS011;10873;51.132;16.848;2024-03-23T10:33:53;10.73;;;6.57;;
21424;SDS011;10873;51.132;16.848;2024-03-23T10:36:21;11.25;;;5.97;;
21424;SDS011;10873;51.132;16.848;2024-03-23T10:38:47;8.38;;;5.60;;
21424;SDS011;10873;51.132;16.848;2024-03-23T10:41:16;11.73;;;6.05;;
21424;SDS011;10873;51.132;16.848;2024-03-23T10:43:42;18.08;;;5.65;;
21424;SDS011;10873;51.132;16.848;2024-03-23T10:46:11;8.60;;;5.07;;
21424;SDS011;10873;51.132;16.848;2024-03-23T10:48:37;9.50;;;4.90;;
21424;SDS011;10873;51.132;16.848;2024-03-23T10:51:05;10.73;;;4.68;;
21424;SDS011;10873;51.132;16.848;2024-03-23T10:53:34;13.07;;;4.50;;
21424;SDS011;10873;51.132;16.848;2024-03-23T10:56:02;6.90;;;4.35;;
21424;SDS011;10873;51.132;16.848;2024-03-23T10:58:31;7.57;;;4.22;;
21424;SDS011;10873;51.132;16.848;2024-03-23T11:01:02;8.20;;;4.45;;
21424;SDS011;10873;51.132;16.848;2024-03-23T11:03:31;8.93;;;4.25;;
21424;SDS011;10873;51.132;16.848;2024-03-23T11:05:59;9.95;;;4.00;;
21424;SDS011;10873;51.132;16.848;2024-03-23T11:08:32;5.93;;;3.22;;
21424;SDS011;10873;51.132;16.848;2024-03-23T11:11:13;9.65;;;4.40;;
21424;SDS011;10873;51.132;16.848;2024-03-23T11:13:47;6.18;;;3.60;;
21424;SDS011;10873;51.132;16.848;2024-03-23T11:16:17;9.10;;;5.10;;
21424;SDS011;10873;51.132;16.848;2024-03-23T11:18:48;7.63;;;4.40;;
21424;SDS011;10873;51.132;16.848;2024-03-23T11:24:21;7.40;;;4.25;;
21424;SDS011;10873;51.132;16.848;2024-03-23T11:26:49;7.97;;;4.20;;
21424;SDS011;10873;51.132;16.848;2024-03-23T11:29:18;10.43;;;5.40;;
21424;SDS011;10873;51.132;16.848;2024-03-23T11:31:47;8.02;;;4.00;;
21424;SDS011;10873;51.132;16.848;2024-03-23T11:34:15;8.95;;;3.95;;
21424;SDS011;10873;51.132;16.848;2024-03-23T11:36:41;9.30;;;3.70;;
21424;SDS011;10873;51.132;16.848;2024-03-23T11:39:14;8.25;;;3.50;;
21424;SDS011;10873;51.132;16.848;2024-03-23T11:41:45;5.28;;;3.22;;
21424;SDS011;10873;51.132;16.848;2024-03-23T11:44:16;8.13;;;3.45;;
21424;SDS011;10873;51.132;16.848;2024-03-23T11:46:43;7.55;;;3.97;;
21424;SDS011;10873;51.132;16.848;2024-03-23T11:49:21;7.25;;;5.05;;
21424;SDS011;10873;51.132;16.848;2024-03-23T11:51:50;11.88;;;5.85;;
21424;SDS011;10873;51.132;16.848;2024-03-23T11:54:19;15.90;;;7.20;;
21424;SDS011;10873;51.132;16.848;2024-03-23T11:56:56;10.10;;;4.70;;
21424;SDS011;10873;51.132;16.848;2024-03-23T11:59:32;6.07;;;4.25;;
21424;SDS011;10873;51.132;16.848;2024-03-23T12:02:06;5.72;;;3.90;;
21424;SDS011;10873;51.132;16.848;2024-03-23T12:04:32;8.20;;;4.32;;
21424;SDS011;10873;51.132;16.848;2024-03-23T12:07:11;7.97;;;3.80;;
21424;SDS011;10873;51.132;16.848;2024-03-23T12:09:37;4.72;;;3.17;;
21424;SDS011;10873;51.132;16.848;2024-03-23T12:12:11;5.78;;;3.58;;
21424;SDS011;10873;51.132;16.848;2024-03-23T12:14:40;4.13;;;3.15;;
21424;SDS011;10873;51.132;16.848;2024-03-23T12:17:08;7.28;;;2.67;;
21424;SDS011;10873;51.132;16.848;2024-03-23T12:19:38;5.97;;;2.72;;
21424;SDS011;10873;51.132;16.848;2024-03-23T12:22:12;5.32;;;2.95;;
21424;SDS011;10873;51.132;16.848;2024-03-23T12:24:38;4.47;;;2.20;;
21424;SDS011;10873;51.132;16.848;2024-03-23T12:27:10;6.43;;;2.67;;
21424;SDS011;10873;51.132;16.848;2024-03-23T12:29:36;3.63;;;2.58;;
21424;SDS011;10873;51.132;16.848;2024-03-23T12:32:05;7.88;;;2.63;;
21424;SDS011;10873;51.132;16.848;2024-03-23T12:34:32;5.22;;;2.60;;
21424;SDS011;10873;51.132;16.848;2024-03-23T12:36:58;4.35;;;2.42;;
21424;SDS011;10873;51.132;16.848;2024-03-23T12:39:24;3.45;;;2.60;;
21424;SDS011;10873;51.132;16.848;2024-03-23T12:41:50;3.92;;;2.75;;
21424;SDS011;10873;51.132;16.848;2024-03-23T12:44:18;7.18;;;2.70;;
21424;SDS011;10873;51.132;16.848;2024-03-23T12:46:44;3.95;;;2.30;;
21424;SDS011;10873;51.132;16.848;2024-03-23T12:49:11;4.05;;;2.40;;
21424;SDS011;10873;51.132;16.848;2024-03-23T12:51:38;3.97;;;2.53;;
21424;SDS011;10873;51.132;16.848;2024-03-23T12:54:04;5.75;;;2.45;;
21424;SDS011;10873;51.132;16.848;2024-03-23T12:56:31;20.73;;;3.65;;
21424;SDS011;10873;51.132;16.848;2024-03-23T12:58:56;11.82;;;3.60;;
21424;SDS011;10873;51.132;16.848;2024-03-23T13:01:23;5.40;;;2.40;;
21424;SDS011;10873;51.132;16.848;2024-03-23T13:03:49;9.63;;;2.00;;
21424;SDS011;10873;51.132;16.848;2024-03-23T13:06:16;4.60;;;1.60;;
21424;SDS011;10873;51.132;16.848;2024-03-23T13:08:46;7.55;;;2.25;;
21424;SDS011;10873;51.132;16.848;2024-03-23T13:11:13;9.20;;;2.35;;
21424;SDS011;10873;51.132;16.848;2024-03-23T13:13:41;17.63;;;3.78;;
21424;SDS011;10873;51.132;16.848;2024-03-23T13:16:10;13.57;;;4.10;;
21424;SDS011;10873;51.132;16.848;2024-03-23T13:18:36;9.40;;;3.47;;
21424;SDS011;10873;51.132;16.848;2024-03-23T13:21:02;10.18;;;3.38;;
21424;SDS011;10873;51.132;16.848;2024-03-23T13:23:30;6.28;;;2.47;;
21424;SDS011;10873;51.132;16.848;2024-03-23T13:25:58;6.22;;;2.80;;
21424;SDS011;10873;51.132;16.848;2024-03-23T13:28:24;4.88;;;2.53;;
21424;SDS011;10873;51.132;16.848;2024-03-23T13:30:51;5.68;;;3.10;;
21424;SDS011;10873;51.132;16.848;2024-03-23T13:33:17;8.93;;;2.47;;
21424;SDS011;10873;51.132;16.848;2024-03-23T13:35:52;8.73;;;2.25;;
21424;SDS011;10873;51.132;16.848;2024-03-23T13:38:18;6.80;;;2.45;;
21424;SDS011;10873;51.132;16.848;2024-03-23T13:40:52;5.90;;;2.03;;
21424;SDS011;10873;51.132;16.848;2024-03-23T13:43:19;4.95;;;2.17;;
21424;SDS011;10873;51.132;16.848;2024-03-23T13:45:46;8.75;;;1.98;;
21424;SDS011;10873;51.132;16.848;2024-03-23T13:48:12;6.72;;;2.35;;
21424;SDS011;10873;51.132;16.848;2024-03-23T13:50:40;3.15;;;1.73;;
21424;SDS011;10873;51.132;16.848;2024-03-23T13:53:09;5.88;;;2.13;;
21424;SDS011;10873;51.132;16.848;2024-03-23T13:55:43;6.47;;;1.60;;
21424;SDS011;10873;51.132;16.848;2024-03-23T13:58:20;3.38;;;1.42;;
21424;SDS011;10873;51.132;16.848;2024-03-23T14:00:52;4.00;;;1.50;;
21424;SDS011;10873;51.132;16.848;2024-03-23T14:03:22;2.33;;;0.90;;
21424;SDS011;10873;51.132;16.848;2024-03-23T14:05:51;2.13;;;0.85;;
21424;SDS011;10873;51.132;16.848;2024-03-23T14:08:19;3.88;;;0.98;;
21424;SDS011;10873;51.132;16.848;2024-03-23T14:10:47;3.55;;;0.70;;
21424;SDS011;10873;51.132;16.848;2024-03-23T14:13:14;2.78;;;0.95;;
21424;SDS011;10873;51.132;16.848;2024-03-23T14:15:40;4.43;;;0.70;;
21424;SDS011;10873;51.132;16.848;2024-03-23T14:18:07;1.50;;;0.60;;
21424;SDS011;10873;51.132;16.848;2024-03-23T14:20:34;3.15;;;0.50;;
21424;SDS011;10873;51.132;16.848;2024-03-23T14:23:00;1.35;;;0.60;;
21424;SDS011;10873;51.132;16.848;2024-03-23T14:25:26;1.42;;;0.65;;
21424;SDS011;10873;51.132;16.848;2024-03-23T14:27:54;1.95;;;0.57;;
21424;SDS011;10873;51.132;16.848;2024-03-23T14:30:29;2.67;;;0.52;;
21424;SDS011;10873;51.132;16.848;2024-03-23T14:32:57;2.67;;;0.57;;
21424;SDS011;10873;51.132;16.848;2024-03-23T14:35:24;1.58;;;0.50;;
21424;SDS011;10873;51.132;16.848;2024-03-23T14:37:53;0.80;;;0.43;;
21424;SDS011;10873;51.132;16.848;2024-03-23T14:40:20;2.75;;;0.60;;
21424;SDS011;10873;51.132;16.848;2024-03-23T14:42:46;0.57;;;0.47;;
21424;SDS011;10873;51.132;16.848;2024-03-23T14:45:13;2.83;;;0.50;;
21424;SDS011;10873;51.132;16.848;2024-03-23T14:47:43;0.65;;;0.50;;
21424;SDS011;10873;51.132;16.848;2024-03-23T14:50:11;2.38;;;0.50;;
21424;SDS011;10873;51.132;16.848;2024-03-23T14:52:41;0.70;;;0.60;;
21424;SDS011;10873;51.132;16.848;2024-03-23T14:55:12;1.50;;;0.50;;
21424;SDS011;10873;51.132;16.848;2024-03-23T14:57:38;0.40;;;0.40;;
21424;SDS011;10873;51.132;16.848;2024-03-23T15:00:06;0.40;;;0.40;;
21424;SDS011;10873;51.132;16.848;2024-03-23T15:02:33;1.55;;;0.50;;
21424;SDS011;10873;51.132;16.848;2024-03-23T15:05:01;1.92;;;0.55;;
21424;SDS011;10873;51.132;16.848;2024-03-23T15:07:29;2.38;;;0.50;;
21424;SDS011;10873;51.132;16.848;2024-03-23T15:10:06;2.50;;;0.77;;
21424;SDS011;10873;51.132;16.848;2024-03-23T15:12:33;0.82;;;0.50;;
21424;SDS011;10873;51.132;16.848;2024-03-23T15:15:01;1.00;;;0.70;;
21424;SDS011;10873;51.132;16.848;2024-03-23T15:17:27;3.25;;;0.70;;
21424;SDS011;10873;51.132;16.848;2024-03-23T15:20:07;1.30;;;0.70;;
21424;SDS011;10873;51.132;16.848;2024-03-23T15:22:38;0.68;;;0.68;;
21424;SDS011;10873;51.132;16.848;2024-03-23T15:25:04;2.60;;;0.75;;
21424;SDS011;10873;51.132;16.848;2024-03-23T15:27:30;1.88;;;0.70;;
21424;SDS011;10873;51.132;16.848;2024-03-23T15:30:00;1.55;;;0.70;;